KBNO/BNO METAR and TAF weather

Enter ICAO airport designator
Station Type Date Time Source
KBNO METAR 2022/01/23 11:53 UTC NOAA

KBNO 231153Z AUTO 00000KT 10SM CLR M06/M08 A3045 RMK AO2 SLP335 T10561078 11033 21061 58003


Station Type Date Time Source
KBNO Decoded METAR 2022/01/23 11:53 UTC NOAA

BURNS MUNICIPAL AIRPORT, OR, United States (KBNO) 43-36N 118-57W 1264M
Jan 23, 2022 - 06:53 AM EST / 2022.01.23 1153 UTC
Wind: Calm:0
Visibility: 10 mile(s):0
Sky conditions: clear
Temperature: 21.9 F (-5.6 C)
Dew Point: 18.0 F (-7.8 C)
Relative Humidity: 84%
Pressure (altimeter): 30.45 in. Hg (1031 hPa)
Pressure tendency: 0.01 inches (0.3 hPa) lower than three hours ago
ob: KBNO 231153Z AUTO 00000KT 10SM CLR M06/M08 A3045 RMK AO2 SLP335 T10561078 11033 21061 58003
cycle: 12

Station Type Date Time Source
KBNO TAF 2022/01/23 12:22 UTC NOAA

TAF KBNO 231120Z 2312/2412 VRB03KT P6SM SKC

Example: see airport list